Time;durP1;ratioP1;P1;durP2;ratioP2;P2;SDS_P1;SDS_P2;PMS_P1;PMS_P2;Temp;Humidity;BMP_temperature;BMP_pressure;BME280_temperature;BME280_humidity;BME280_pressure;Samples;Min_cycle;Max_cycle;Signal;HPM_P1;HPM_P2
2021/11/29 00:00:40;;;;;;;;;;;;;;;15.27;65.26;98884.91;5077502;28;1023;-71
2021/11/29 00:03:09;;;;;;;;;;;;;;;15.27;64.78;98886.75;5076970;28;1371;-62
2021/11/29 00:05:35;;;;;;;;;;;;;;;15.29;64.31;98876.75;5077436;28;985;-71
2021/11/29 00:08:03;;;;;;;;;;;;;;;15.29;64.21;98876.75;5077452;28;965;-71
2021/11/29 00:10:30;;;;;;;;;;;;;;;15.26;64.54;98871.72;5077407;28;987;-62
2021/11/29 00:12:58;;;;;;;;;;;;;;;15.27;64.21;98873.44;5077552;28;973;-71
2021/11/29 00:15:24;;;;;;;;;;;;;;;15.25;64.39;98864.75;5077160;28;1883;-70
2021/11/29 00:17:51;;;;;;;;;;;;;;;15.26;64.30;98856.63;5077265;28;1061;-63
2021/11/29 00:20:19;;;;;;;;;;;;;;;15.26;64.49;98855.75;5076957;28;1062;-71
2021/11/29 00:22:46;;;;;;;;;;;;;;;15.26;64.76;98858.41;5077390;28;1057;-71
2021/11/29 00:25:13;;;;;;;;;;;;;;;15.25;64.18;98864.75;5077115;28;997;-71
2021/11/29 00:27:39;;;;;;;;;;;;;;;15.25;65.99;98846.13;5077269;28;1052;-63
2021/11/29 00:30:07;;;;;;;;;;;;;;;15.24;65.09;98847.09;5077039;28;1056;-62
2021/11/29 00:32:33;;;;;;;;;;;;;;;15.26;64.47;98843.31;5076889;28;1064;-71
2021/11/29 00:35:00;;;;;;;;;;;;;;;15.24;65.69;98828.47;5076813;28;1906;-71
2021/11/29 00:37:28;;;;;;;;;;;;;;;15.29;64.44;98842.97;5076895;28;1059;-70
2021/11/29 00:39:56;;;;;;;;;;;;;;;15.25;65.04;98828.31;5076483;28;1019;-71
2021/11/29 00:42:23;;;;;;;;;;;;;;;15.26;64.54;98831.78;5076822;28;983;-71
2021/11/29 00:44:49;;;;;;;;;;;;;;;15.25;64.49;98816.81;5076442;28;1102;-62
2021/11/29 00:47:16;;;;;;;;;;;;;;;15.25;65.02;98811.50;5076399;28;1031;-63
2021/11/29 00:49:42;;;;;;;;;;;;;;;15.25;65.30;98814.16;5076323;28;1023;-71
2021/11/29 00:52:09;;;;;;;;;;;;;;;15.26;64.47;98810.50;5076295;28;981;-71
2021/11/29 00:54:37;;;;;;;;;;;;;;;15.24;64.58;98817.81;5076535;28;1070;-71
2021/11/29 00:57:03;;;;;;;;;;;;;;;15.24;64.89;98816.00;5076356;28;1977;-71
2021/11/29 00:59:30;;;;;;;;;;;;;;;15.27;65.15;98822.81;5076501;28;949;-62
2021/11/29 01:01:56;;;;;;;;;;;;;;;15.25;64.02;98811.50;5076043;28;1408;-72
2021/11/29 01:04:23;;;;;;;;;;;;;;;15.26;64.15;98806.03;5076358;28;1003;-62
2021/11/29 01:06:49;;;;;;;;;;;;;;;15.25;64.24;98808.84;5075534;28;1022;-62
2021/11/29 01:09:16;;;;;;;;;;;;;;;15.27;64.32;98817.50;5076282;28;995;-62
2021/11/29 01:11:43;;;;;;;;;;;;;;;15.24;64.77;98793.84;5076218;28;1061;-70
2021/11/29 01:14:10;;;;;;;;;;;;;;;15.26;64.13;98797.19;5075765;28;1031;-63
2021/11/29 01:16:36;;;;;;;;;;;;;;;15.26;64.62;98797.19;5076001;28;1906;-71
2021/11/29 01:19:03;;;;;;;;;;;;;;;15.28;64.38;98800.56;5075727;28;1019;-71
2021/11/29 01:21:30;;;;;;;;;;;;;;;15.25;64.73;98800.84;5076236;28;984;-71
2021/11/29 01:23:56;;;;;;;;;;;;;;;15.26;64.13;98799.84;5075948;28;973;-71
2021/11/29 01:26:23;;;;;;;;;;;;;;;15.23;65.07;98778.88;5075813;28;969;-71
2021/11/29 01:28:50;;;;;;;;;;;;;;;15.27;64.69;98773.06;5075554;28;1039;-71
2021/11/29 01:31:17;;;;;;;;;;;;;;;15.23;64.49;98766.38;5075806;28;989;-71
2021/11/29 01:33:43;;;;;;;;;;;;;;;15.23;64.24;98771.72;5075673;28;1057;-71
2021/11/29 01:36:10;;;;;;;;;;;;;;;15.24;64.26;98769.88;5075354;28;1905;-71
2021/11/29 01:38:36;;;;;;;;;;;;;;;15.25;64.63;98768.91;5075609;28;1060;-72
2021/11/29 01:41:03;;;;;;;;;;;;;;;15.26;64.67;98763.41;5075732;28;958;-71
2021/11/29 01:43:30;;;;;;;;;;;;;;;15.24;64.80;98752.09;5075376;28;1008;-69
2021/11/29 01:45:58;;;;;;;;;;;;;;;15.23;64.70;98731.78;5075468;28;1074;-71
2021/11/29 01:48:25;;;;;;;;;;;;;;;15.22;64.45;98729.25;5075181;28;1107;-62
2021/11/29 01:50:53;;;;;;;;;;;;;;;15.24;64.42;98735.25;5075108;28;1094;-63
2021/11/29 01:53:21;;;;;;;;;;;;;;;15.21;65.30;98715.13;5075404;28;1059;-71
2021/11/29 01:55:49;;;;;;;;;;;;;;;15.24;64.53;98704.16;5075222;28;1901;-63
2021/11/29 01:58:16;;;;;;;;;;;;;;;15.23;65.66;98705.16;5075002;28;1028;-72
2021/11/29 02:00:45;;;;;;;;;;;;;;;15.25;64.54;98697.00;5075262;28;1165;-71
2021/11/29 02:03:13;;;;;;;;;;;;;;;15.24;65.51;98684.69;5074852;28;1404;-71
2021/11/29 02:05:40;;;;;;;;;;;;;;;15.23;65.71;98680.34;5074882;28;1269;-72
2021/11/29 02:08:07;;;;;;;;;;;;;;;15.23;64.73;98688.34;5074963;28;1048;-63
2021/11/29 02:10:34;;;;;;;;;;;;;;;15.22;64.79;98681.34;5075191;28;991;-71
2021/11/29 02:13:01;;;;;;;;;;;;;;;15.22;64.73;98681.34;5074821;28;1043;-62
2021/11/29 02:15:27;;;;;;;;;;;;;;;15.22;64.80;98684.00;5075001;28;1910;-63
2021/11/29 02:17:53;;;;;;;;;;;;;;;15.21;64.47;98688.50;5075113;28;1061;-62
2021/11/29 02:20:22;;;;;;;;;;;;;;;15.19;65.14;98666.53;5075183;28;973;-63
2021/11/29 02:22:50;;;;;;;;;;;;;;;15.22;65.13;98674.22;5075282;28;1027;-72
2021/11/29 02:25:18;;;;;;;;;;;;;;;15.23;64.88;98656.41;5075019;28;1072;-71
2021/11/29 02:27:46;;;;;;;;;;;;;;;15.22;65.81;98647.59;5074614;28;1095;-71
2021/11/29 02:30:14;;;;;;;;;;;;;;;15.21;64.83;98642.41;5074700;28;1071;-62
2021/11/29 02:32:40;;;;;;;;;;;;;;;15.20;65.31;98622.94;5074541;28;1029;-62
2021/11/29 02:35:07;;;;;;;;;;;;;;;15.20;65.30;98630.09;5074949;28;1079;-62
2021/11/29 02:37:34;;;;;;;;;;;;;;;15.23;64.34;98622.59;5074827;28;1973;-63
2021/11/29 02:40:02;;;;;;;;;;;;;;;15.23;64.67;98627.09;5075152;28;1076;-71
2021/11/29 02:42:28;;;;;;;;;;;;;;;15.23;64.44;98621.78;5074550;28;1056;-71
2021/11/29 02:44:54;;;;;;;;;;;;;;;15.21;64.59;98608.63;5074477;28;1063;-62
2021/11/29 02:47:21;;;;;;;;;;;;;;;15.22;64.12;98610.31;5074489;28;1035;-62
2021/11/29 02:49:48;;;;;;;;;;;;;;;15.21;64.29;98597.16;5074462;28;1079;-63
2021/11/29 02:52:16;;;;;;;;;;;;;;;15.20;64.29;98606.97;5074814;28;964;-62
2021/11/29 02:54:44;;;;;;;;;;;;;;;15.20;64.33;98580.34;5074409;28;1070;-62
2021/11/29 02:57:13;;;;;;;;;;;;;;;15.20;65.27;98584.81;5074262;28;1906;-62
2021/11/29 02:59:40;;;;;;;;;;;;;;;15.18;64.53;98581.50;5074872;28;1091;-62
2021/11/29 03:02:07;;;;;;;;;;;;;;;15.17;64.29;98580.66;5071296;28;1471;-62
2021/11/29 03:04:34;;;;;;;;;;;;;;;15.20;64.20;98583.00;5074515;28;974;-62
2021/11/29 03:07:01;;;;;;;;;;;;;;;15.19;64.03;98580.50;5074512;28;1070;-62
2021/11/29 03:09:28;;;;;;;;;;;;;;;15.19;64.28;98572.53;5074509;28;1023;-71
2021/11/29 03:11:55;;;;;;;;;;;;;;;15.21;65.49;98579.34;5074573;28;1047;-68
2021/11/29 03:14:23;;;;;;;;;;;;;;;15.18;63.99;98573.50;5074251;28;975;-71
2021/11/29 03:16:53;;;;;;;;;;;;;;;15.18;64.10;98582.34;5074385;28;1909;-72
2021/11/29 03:19:19;;;;;;;;;;;;;;;15.15;64.51;98565.88;5074472;28;1054;-71
2021/11/29 03:21:46;;;;;;;;;;;;;;;15.16;64.49;98580.81;5074452;28;1049;-71
2021/11/29 03:24:12;;;;;;;;;;;;;;;15.17;65.19;98579.84;5074389;28;1052;-72
2021/11/29 03:26:39;;;;;;;;;;;;;;;15.16;64.36;98586.16;5074507;28;970;-72
2021/11/29 03:29:07;;;;;;;;;;;;;;;15.19;64.53;98593.81;5075527;28;1114;-62
2021/11/29 03:31:34;;;;;;;;;;;;;;;15.15;64.27;98603.13;5078161;28;1026;-72
2021/11/29 03:34:01;;;;;;;;;;;;;;;15.17;65.53;98611.78;5077649;28;1021;-70
2021/11/29 03:36:30;;;;;;;;;;;;;;;15.16;65.70;98602.13;5077884;28;1902;-63
2021/11/29 03:38:57;;;;;;;;;;;;;;;15.19;65.35;98599.16;5077930;28;1093;-72
2021/11/29 03:41:25;;;;;;;;;;;;;;;15.16;65.02;98610.09;5077915;28;1056;-71
2021/11/29 03:43:51;;;;;;;;;;;;;;;15.16;64.59;98610.97;5077895;28;1007;-63
2021/11/29 03:46:18;;;;;;;;;;;;;;;15.19;64.37;98593.81;5077898;28;1029;-63
2021/11/29 03:48:46;;;;;;;;;;;;;;;15.19;65.28;98602.63;5077830;28;1007;-71
2021/11/29 03:51:12;;;;;;;;;;;;;;;15.18;65.31;98595.66;5077446;28;1071;-62
2021/11/29 03:53:39;;;;;;;;;;;;;;;15.19;65.29;98573.34;5077350;28;1466;-71
2021/11/29 03:56:06;;;;;;;;;;;;;;;15.17;64.47;98569.19;5077302;28;1981;-71
2021/11/29 03:58:32;;;;;;;;;;;;;;;15.15;64.51;98555.22;5077612;28;1060;-71
2021/11/29 04:00:59;;;;;;;;;;;;;;;15.17;65.15;98569.19;5077281;28;1021;-71
2021/11/29 04:03:25;;;;;;;;;;;;;;;15.17;64.74;98547.91;5077004;28;1490;-63
2021/11/29 04:05:53;;;;;;;;;;;;;;;15.15;64.76;98547.22;5076570;28;974;-72
2021/11/29 04:08:19;;;;;;;;;;;;;;;15.16;64.77;98532.91;5076758;28;978;-71
2021/11/29 04:10:46;;;;;;;;;;;;;;;15.14;65.65;98538.41;5076907;28;1165;-71
2021/11/29 04:13:12;;;;;;;;;;;;;;;15.18;64.40;98528.25;5076533;28;1043;-71
2021/11/29 04:15:39;;;;;;;;;;;;;;;15.16;64.20;98528.44;5077014;28;1910;-62
2021/11/29 04:18:05;;;;;;;;;;;;;;;15.17;64.62;98537.25;5076843;28;2055;-72
2021/11/29 04:20:32;;;;;;;;;;;;;;;15.15;64.96;98528.59;5076986;28;1028;-63
2021/11/29 04:23:00;;;;;;;;;;;;;;;15.14;64.93;98517.13;5077137;28;1049;-62
2021/11/29 04:25:33;;;;;;;;;;;;;;;15.14;64.41;98510.94;5076839;28;1036;-71
2021/11/29 04:28:00;;;;;;;;;;;;;;;15.14;64.37;98509.13;5076788;28;1066;-71
2021/11/29 04:30:27;;;;;;;;;;;;;;;15.16;64.69;98520.44;5076648;28;1047;-71
2021/11/29 04:32:55;;;;;;;;;;;;;;;15.16;64.70;98507.13;5077016;28;971;-65
2021/11/29 04:35:21;;;;;;;;;;;;;;;15.14;65.53;98510.94;5076945;28;1003;-63
2021/11/29 04:37:48;;;;;;;;;;;;;;;15.15;64.35;98507.31;5076435;28;1905;-71
2021/11/29 04:40:16;;;;;;;;;;;;;;;15.14;64.37;98510.94;5075610;28;978;-71
2021/11/29 04:42:42;;;;;;;;;;;;;;;15.16;64.56;98514.28;5076235;28;1004;-62
2021/11/29 04:45:09;;;;;;;;;;;;;;;15.15;64.50;98516.09;5076616;28;1044;-72
2021/11/29 04:47:37;;;;;;;;;;;;;;;15.11;65.58;98523.59;5076375;28;1096;-71
2021/11/29 04:50:03;;;;;;;;;;;;;;;15.14;64.82;98527.78;5076659;28;978;-62
2021/11/29 04:52:30;;;;;;;;;;;;;;;15.16;64.69;98527.59;5076465;28;960;-63
2021/11/29 04:54:57;;;;;;;;;;;;;;;15.14;65.33;98530.44;5076569;28;1044;-63
2021/11/29 04:57:24;;;;;;;;;;;;;;;15.13;64.74;98534.06;5076724;28;1973;-71
2021/11/29 04:59:52;;;;;;;;;;;;;;;15.18;64.53;98541.56;5076465;28;995;-71
2021/11/29 05:02:19;;;;;;;;;;;;;;;15.15;65.41;98518.78;5076052;28;1390;-63
2021/11/29 05:04:46;;;;;;;;;;;;;;;15.15;65.53;98513.44;5075883;28;1009;-72
2021/11/29 05:07:13;;;;;;;;;;;;;;;15.14;64.75;98508.28;5076229;28;995;-64
2021/11/29 05:09:41;;;;;;;;;;;;;;;15.13;64.76;98510.13;5076147;28;1027;-71
2021/11/29 05:12:08;;;;;;;;;;;;;;;15.14;65.63;98518.94;5076176;28;1012;-63
2021/11/29 05:14:36;;;;;;;;;;;;;;;15.18;64.60;98521.13;5075936;28;978;-62
2021/11/29 05:17:02;;;;;;;;;;;;;;;15.14;64.94;98532.25;5076004;28;1909;-63
2021/11/29 05:19:30;;;;;;;;;;;;;;;15.15;64.54;98528.59;5075806;28;1107;-71
2021/11/29 05:21:56;;;;;;;;;;;;;;;15.15;64.89;98512.63;5075728;28;1099;-62
2021/11/29 05:24:22;;;;;;;;;;;;;;;15.15;64.79;98523.28;5075562;28;1047;-64
2021/11/29 05:26:49;;;;;;;;;;;;;;;15.15;64.43;98544.56;5075708;28;1056;-63
2021/11/29 05:29:15;;;;;;;;;;;;;;;15.14;64.41;98542.88;5075406;28;1072;-62
2021/11/29 05:31:44;;;;;;;;;;;;;;;15.13;66.11;98546.56;5075293;28;1032;-71
2021/11/29 05:34:10;;;;;;;;;;;;;;;15.13;64.72;98570.53;5075536;28;1048;-62
2021/11/29 05:36:37;;;;;;;;;;;;;;;15.14;65.78;98573.03;5075631;28;1975;-72
2021/11/29 05:39:03;;;;;;;;;;;;;;;15.14;65.52;98567.69;5075599;28;1026;-62
2021/11/29 05:41:30;;;;;;;;;;;;;;;15.13;64.51;98568.69;5075557;28;1013;-62
2021/11/29 05:43:56;;;;;;;;;;;;;;;15.14;64.71;98598.78;5075204;28;1097;-62
2021/11/29 05:46:23;;;;;;;;;;;;;;;15.10;65.89;98604.47;5074797;28;1041;-62
2021/11/29 05:48:51;;;;;;;;;;;;;;;15.09;66.21;98584.13;5075036;28;1057;-62
2021/11/29 05:51:18;;;;;;;;;;;;;;;15.13;64.41;98599.81;5074609;28;1088;-72
2021/11/29 05:53:44;;;;;;;;;;;;;;;15.14;64.57;98586.34;5074952;28;980;-63
2021/11/29 05:56:11;;;;;;;;;;;;;;;15.17;65.33;98593.16;5074863;28;962;-62
2021/11/29 05:58:38;;;;;;;;;;;;;;;15.15;64.62;98592.50;5074919;28;1902;-71
2021/11/29 06:01:05;;;;;;;;;;;;;;;15.13;64.49;98597.13;5074694;28;970;-72
2021/11/29 06:03:31;;;;;;;;;;;;;;;15.14;65.49;98596.13;5074308;28;1442;-71
2021/11/29 06:05:59;;;;;;;;;;;;;;;15.11;64.16;98607.94;5074343;28;1099;-62
2021/11/29 06:08:26;;;;;;;;;;;;;;;15.10;64.93;98601.78;5074408;28;985;-62
2021/11/29 06:10:52;;;;;;;;;;;;;;;15.14;64.74;98585.47;5074762;28;1015;-63
2021/11/29 06:13:19;;;;;;;;;;;;;;;15.15;64.52;98592.50;5074210;28;1044;-72
2021/11/29 06:15:45;;;;;;;;;;;;;;;15.14;65.80;98558.84;5074370;28;1064;-71
2021/11/29 06:18:12;;;;;;;;;;;;;;;15.15;64.25;98571.19;5074645;28;1975;-62
2021/11/29 06:20:38;;;;;;;;;;;;;;;15.11;64.86;98571.50;5075675;28;963;-70
2021/11/29 06:23:06;;;;;;;;;;;;;;;15.13;64.44;98583.84;5075121;28;1068;-71
2021/11/29 06:25:37;;;;;;;;;;;;;;;15.13;66.40;98581.16;5075014;28;988;-63
2021/11/29 06:28:04;;;;;;;;;;;;;;;15.11;64.46;98590.13;5074878;28;980;-63
2021/11/29 06:30:30;;;;;;;;;;;;;;;15.15;65.74;98619.09;5074889;28;1098;-72
2021/11/29 06:32:57;;;;;;;;;;;;;;;15.13;64.47;98616.59;5074589;28;1036;-62
2021/11/29 06:35:23;;;;;;;;;;;;;;;15.15;64.80;98621.78;5074643;28;1032;-63
2021/11/29 06:37:55;;;;;;;;;;;;;;;15.11;64.42;98624.75;5075139;28;1975;-63
2021/11/29 06:40:23;;;;;;;;;;;;;;;15.10;65.23;98662.19;5074515;28;1091;-62
2021/11/29 06:42:50;;;;;;;;;;;;;;;15.11;65.51;98664.66;5074549;28;1099;-63
2021/11/29 06:45:17;;;;;;;;;;;;;;;15.09;64.64;98677.31;5074808;28;1064;-71
2021/11/29 06:47:43;;;;;;;;;;;;;;;15.14;64.40;98702.63;5074685;28;1055;-71
2021/11/29 06:50:10;;;;;;;;;;;;;;;15.11;64.33;98680.66;5074797;28;941;-62
2021/11/29 06:52:37;;;;;;;;;;;;;;;15.10;64.33;98678.16;5074726;28;782;-71
2021/11/29 06:55:03;;;;;;;;;;;;;;;15.10;65.47;98689.66;5074683;28;1045;-68
2021/11/29 06:57:31;;;;;;;;;;;;;;;15.11;66.08;98693.13;5074672;28;1902;-71
2021/11/29 06:59:58;;;;;;;;;;;;;;;15.13;65.41;98698.31;5074665;28;970;-62
2021/11/29 07:02:27;;;;;;;;;;;;;;;15.13;64.66;98695.63;5074073;28;1376;-71
2021/11/29 07:07:57;;;;;;;;;;;;;;;15.13;66.04;98714.28;5078404;28;1248;-62
2021/11/29 07:10:25;;;;;;;;;;;;;;;15.11;65.53;98693.13;5078283;28;1016;-62
2021/11/29 07:12:53;;;;;;;;;;;;;;;15.10;64.85;98649.72;5078520;28;1043;-62
2021/11/29 07:15:21;;;;;;;;;;;;;;;15.09;65.61;98666.66;5078418;28;963;-63
2021/11/29 07:17:47;;;;;;;;;;;;;;;15.09;64.95;98669.31;5077977;28;1975;-63
2021/11/29 07:20:13;;;;;;;;;;;;;;;15.11;64.74;98683.31;5078352;28;991;-71
2021/11/29 07:22:40;;;;;;;;;;;;;;;15.09;65.98;98648.03;5078333;28;1017;-71
2021/11/29 07:25:07;;;;;;;;;;;;;;;15.10;65.25;98654.22;5078026;28;984;-71
2021/11/29 07:27:34;;;;;;;;;;;;;;;15.09;65.78;98632.06;5078143;28;982;-63
2021/11/29 07:30:04;;;;;;;;;;;;;;;15.09;65.80;98642.72;5077794;28;1072;-62
2021/11/29 07:32:30;;;;;;;;;;;;;;;15.10;65.66;98681.66;5078109;28;960;-63
2021/11/29 07:34:57;;;;;;;;;;;;;;;15.11;64.59;98675.31;5078036;28;995;-62
2021/11/29 07:37:23;;;;;;;;;;;;;;;15.10;65.99;98699.47;5077741;28;1906;-72
2021/11/29 07:39:51;;;;;;;;;;;;;;;15.09;65.05;98701.28;5077919;28;978;-71
2021/11/29 07:42:18;;;;;;;;;;;;;;;15.10;64.62;98694.97;5077938;28;996;-71
2021/11/29 07:44:44;;;;;;;;;;;;;;;15.10;64.77;98736.72;5077818;28;978;-63
2021/11/29 07:47:12;;;;;;;;;;;;;;;15.11;65.90;98746.38;5077556;28;1079;-62
2021/11/29 07:49:39;;;;;;;;;;;;;;;15.07;64.58;98761.81;5077793;28;1093;-63
2021/11/29 07:52:07;;;;;;;;;;;;;;;15.08;65.97;98755.53;5077437;28;1091;-71
2021/11/29 07:54:34;;;;;;;;;;;;;;;15.07;65.40;98751.19;5077609;28;988;-72
2021/11/29 07:57:00;;;;;;;;;;;;;;;15.11;64.65;98752.53;5077322;28;1906;-71
2021/11/29 07:59:27;;;;;;;;;;;;;;;15.08;64.96;98741.34;5077639;28;1055;-62
2021/11/29 08:01:53;;;;;;;;;;;;;;;15.13;65.07;98743.56;5077052;28;1349;-71
2021/11/29 08:04:21;;;;;;;;;;;;;;;15.08;65.60;98736.88;5077518;28;1013;-63
2021/11/29 08:06:48;;;;;;;;;;;;;;;15.13;65.57;98760.34;5077654;28;1017;-63
2021/11/29 08:09:14;;;;;;;;;;;;;;;15.08;64.88;98750.19;5077477;28;989;-63
2021/11/29 08:11:41;;;;;;;;;;;;;;;15.09;66.28;98754.50;5077131;28;1087;-63
2021/11/29 08:14:07;;;;;;;;;;;;;;;15.09;64.72;98759.00;5077051;28;1070;-64
2021/11/29 08:16:34;;;;;;;;;;;;;;;15.09;64.94;98753.69;5076942;28;1024;-63
2021/11/29 08:19:00;;;;;;;;;;;;;;;15.13;65.60;98732.91;5077134;28;1906;-71
2021/11/29 08:21:28;;;;;;;;;;;;;;;15.11;65.11;98720.56;5077249;28;982;-63
2021/11/29 08:23:54;;;;;;;;;;;;;;;15.09;64.97;98719.91;5077152;28;1014;-71
2021/11/29 08:26:21;;;;;;;;;;;;;;;15.09;66.07;98722.56;5077188;28;1003;-62
2021/11/29 08:28:47;;;;;;;;;;;;;;;15.11;65.05;98743.72;5076755;28;992;-71
2021/11/29 08:31:14;;;;;;;;;;;;;;;15.07;64.75;98751.19;5076771;28;1109;-71
2021/11/29 08:33:40;;;;;;;;;;;;;;;15.08;65.50;98746.69;5077131;28;949;-72
2021/11/29 08:36:07;;;;;;;;;;;;;;;15.08;65.20;98736.88;5077056;28;1030;-62
2021/11/29 08:38:34;;;;;;;;;;;;;;;15.09;64.77;98746.53;5076584;28;1906;-71
2021/11/29 08:41:01;;;;;;;;;;;;;;;15.09;65.10;98743.88;5076742;28;1017;-63
2021/11/29 08:43:27;;;;;;;;;;;;;;;15.10;65.05;98742.06;5076879;28;963;-62
2021/11/29 08:45:54;;;;;;;;;;;;;;;15.07;64.86;98750.34;5076808;28;1242;-71
2021/11/29 08:48:21;;;;;;;;;;;;;;;15.07;64.64;98753.84;5076735;28;973;-62
2021/11/29 08:50:49;;;;;;;;;;;;;;;15.08;65.10;98747.53;5076317;28;1008;-67
2021/11/29 08:53:18;;;;;;;;;;;;;;;15.11;64.69;98752.53;5076276;28;1083;-62
2021/11/29 08:55:46;;;;;;;;;;;;;;;15.09;64.95;98770.47;5076861;28;792;-63
2021/11/29 08:58:13;;;;;;;;;;;;;;;15.06;64.88;98764.63;5076085;28;1906;-71
2021/11/29 09:00:41;;;;;;;;;;;;;;;15.06;65.78;98781.47;5076205;28;1008;-72
2021/11/29 09:03:08;;;;;;;;;;;;;;;15.05;64.66;98774.47;5075925;28;1372;-63
2021/11/29 09:05:36;;;;;;;;;;;;;;;15.07;66.34;98793.75;5076205;28;1040;-72
2021/11/29 09:08:02;;;;;;;;;;;;;;;15.05;65.30;98777.13;5076005;28;1019;-63
2021/11/29 09:10:29;;;;;;;;;;;;;;;15.08;65.20;98760.00;5076129;28;1022;-64
2021/11/29 09:12:56;;;;;;;;;;;;;;;15.09;64.90;98762.50;5075915;28;930;-71
2021/11/29 09:15:23;;;;;;;;;;;;;;;15.09;64.86;98725.22;5076069;28;982;-72
2021/11/29 09:17:50;;;;;;;;;;;;;;;15.14;65.12;98721.25;5075766;28;1968;-62
2021/11/29 09:20:18;;;;;;;;;;;;;;;15.24;65.95;98736.13;5075781;28;1087;-62
2021/11/29 09:22:45;;;;;;;;;;;;;;;15.18;65.85;98725.25;5075979;28;1024;-62
2021/11/29 09:25:12;;;;;;;;;;;;;;;15.25;65.10;98763.56;5075960;28;989;-62
2021/11/29 09:27:39;;;;;;;;;;;;;;;15.22;65.10;98822.47;5075447;28;965;-63
2021/11/29 09:30:08;;;;;;;;;;;;;;;15.18;64.66;98826.44;5075790;28;973;-71
2021/11/29 09:32:37;;;;;;;;;;;;;;;15.23;65.25;98781.53;5075794;28;1065;-63
2021/11/29 09:35:04;;;;;;;;;;;;;;;15.35;65.15;98782.91;5075729;28;1067;-63
2021/11/29 09:37:30;;;;;;;;;;;;;;;15.41;65.23;98776.13;5075674;28;1977;-72
2021/11/29 09:39:57;;;;;;;;;;;;;;;15.50;65.36;98777.84;5075636;28;981;-62
2021/11/29 09:42:23;;;;;;;;;;;;;;;15.49;65.30;98792.94;5075305;28;1079;-62
2021/11/29 09:44:53;;;;;;;;;;;;;;;15.42;65.20;98805.25;5075636;28;966;-71
2021/11/29 09:47:21;;;;;;;;;;;;;;;15.45;64.57;98804.94;5075283;28;1071;-63
2021/11/29 09:49:47;;;;;;;;;;;;;;;15.40;64.49;98799.25;5075723;28;991;-63
2021/11/29 09:52:14;;;;;;;;;;;;;;;15.34;65.05;98812.38;5075381;28;990;-70
2021/11/29 09:54:41;;;;;;;;;;;;;;;15.31;64.06;98817.00;5075148;28;1282;-63
2021/11/29 09:57:08;;;;;;;;;;;;;;;15.32;64.00;98801.91;5075065;28;1024;-62
2021/11/29 09:59:34;;;;;;;;;;;;;;;15.22;65.72;98801.16;5074994;28;1898;-71
2021/11/29 10:02:01;;;;;;;;;;;;;;;15.19;66.27;98809.47;5074970;28;1396;-71
2021/11/29 10:04:29;;;;;;;;;;;;;;;15.14;64.45;98809.09;5074892;28;1087;-63
2021/11/29 10:06:55;;;;;;;;;;;;;;;15.11;65.07;98816.41;5075180;28;1060;-71
2021/11/29 10:09:30;;;;;;;;;;;;;;;15.11;64.78;98818.25;5074978;28;1102;-71
2021/11/29 10:11:59;;;;;;;;;;;;;;;15.13;65.58;98807.44;5075206;28;1007;-62
2021/11/29 10:14:25;;;;;;;;;;;;;;;15.10;64.94;98803.28;5075201;28;1064;-71
2021/11/29 10:16:58;;;;;;;;;;;;;;;15.11;65.28;98808.44;5075106;28;1022;-71
2021/11/29 10:19:33;;;;;;;;;;;;;;;15.09;64.78;98799.75;5074786;28;1961;-62
2021/11/29 10:22:11;;;;;;;;;;;;;;;15.11;65.24;98804.94;5075026;28;964;-63
2021/11/29 10:24:38;;;;;;;;;;;;;;;15.14;65.20;98817.09;5074968;28;967;-62
2021/11/29 10:27:04;;;;;;;;;;;;;;;15.08;66.03;98816.75;5075048;28;976;-63
2021/11/29 10:29:31;;;;;;;;;;;;;;;15.11;65.69;98842.22;5074987;28;962;-63
2021/11/29 10:31:58;;;;;;;;;;;;;;;15.09;64.96;98825.56;5074973;28;1118;-71
2021/11/29 10:34:27;;;;;;;;;;;;;;;15.09;66.02;98829.06;5074936;28;971;-72
2021/11/29 10:36:55;;;;;;;;;;;;;;;15.10;65.97;98841.38;5074657;28;1056;-65
2021/11/29 10:39:24;;;;;;;;;;;;;;;15.09;65.14;98818.41;5074042;28;1910;-70
2021/11/29 10:41:54;;;;;;;;;;;;;;;15.09;64.85;98813.06;5074811;28;1007;-62
2021/11/29 10:44:21;;;;;;;;;;;;;;;15.11;64.84;98821.75;5074837;28;1232;-63
2021/11/29 10:46:49;;;;;;;;;;;;;;;15.08;65.12;98822.06;5074611;28;1032;-72
2021/11/29 10:49:17;;;;;;;;;;;;;;;15.08;65.16;98829.19;5074511;28;1048;-64
2021/11/29 10:51:45;;;;;;;;;;;;;;;15.08;65.49;98842.50;5074455;28;1044;-62
2021/11/29 10:54:14;;;;;;;;;;;;;;;15.08;65.56;98853.16;5074709;28;1048;-63
2021/11/29 10:56:41;;;;;;;;;;;;;;;15.08;65.45;98856.69;5074687;28;1023;-62
2021/11/29 10:59:09;;;;;;;;;;;;;;;15.07;64.80;98852.34;5075041;28;1977;-69
2021/11/29 11:02:00;;;;;;;;;;;;;;;15.08;65.61;98858.47;5072011;28;1416;-62
2021/11/29 11:04:27;;;;;;;;;;;;;;;15.08;65.42;98854.00;5074301;28;1000;-63
2021/11/29 11:06:56;;;;;;;;;;;;;;;15.08;65.11;98854.00;5074195;28;1044;-72
2021/11/29 11:09:25;;;;;;;;;;;;;;;15.11;65.00;98880.31;5074540;28;1020;-71
2021/11/29 11:11:52;;;;;;;;;;;;;;;15.06;64.92;98876.44;5074231;28;965;-62
2021/11/29 11:14:20;;;;;;;;;;;;;;;15.07;65.57;98894.91;5074314;28;996;-62
2021/11/29 11:16:49;;;;;;;;;;;;;;;15.07;65.35;98886.94;5074214;28;1096;-71
2021/11/29 11:19:23;;;;;;;;;;;;;;;15.08;64.99;98899.28;5074381;28;2240;-71
2021/11/29 11:21:50;;;;;;;;;;;;;;;15.08;64.79;98914.38;5074569;28;965;-63
2021/11/29 11:24:25;;;;;;;;;;;;;;;15.06;65.95;98901.25;5074421;28;1091;-62
2021/11/29 11:26:55;;;;;;;;;;;;;;;15.08;65.93;98923.22;5074362;28;986;-63
2021/11/29 11:29:35;;;;;;;;;;;;;;;15.03;65.45;98898.88;5074060;28;1024;-72
2021/11/29 11:32:08;;;;;;;;;;;;;;;15.03;65.20;98917.53;5074059;28;1063;-71
2021/11/29 11:34:35;;;;;;;;;;;;;;;15.06;65.33;98924.34;5074288;28;1026;-71
2021/11/29 11:37:01;;;;;;;;;;;;;;;15.04;66.08;98926.34;5074347;28;970;-71
2021/11/29 11:39:29;;;;;;;;;;;;;;;15.05;65.58;98938.66;5073871;28;1906;-62
2021/11/29 11:41:56;;;;;;;;;;;;;;;15.04;65.71;98943.16;5074204;28;1030;-71
2021/11/29 11:44:23;;;;;;;;;;;;;;;15.04;64.76;98950.28;5074261;28;1057;-63
2021/11/29 11:46:49;;;;;;;;;;;;;;;15.05;66.03;98944.81;5073983;28;1040;-62
2021/11/29 11:49:16;;;;;;;;;;;;;;;15.03;65.23;98944.13;5074151;28;1017;-72
2021/11/29 11:51:43;;;;;;;;;;;;;;;15.06;64.60;98943.84;5077453;28;1330;-62
2021/11/29 11:54:09;;;;;;;;;;;;;;;15.04;64.81;98937.84;5077746;28;1037;-63
2021/11/29 11:56:37;;;;;;;;;;;;;;;15.01;64.78;98930.16;5077444;28;1027;-63
2021/11/29 11:59:12;;;;;;;;;;;;;;;15.02;65.03;98918.53;5077666;28;1979;-63
2021/11/29 12:01:42;;;;;;;;;;;;;;;15.04;64.54;98915.69;5077248;28;1488;-63
2021/11/29 12:04:11;;;;;;;;;;;;;;;15.04;65.07;98916.53;5077372;28;1234;-71
2021/11/29 12:06:40;;;;;;;;;;;;;;;15.01;64.86;98919.50;5077214;28;1079;-63
2021/11/29 12:09:08;;;;;;;;;;;;;;;15.03;65.17;98906.88;5077473;28;1142;-71
2021/11/29 12:11:38;;;;;;;;;;;;;;;15.03;65.78;98893.56;5077520;28;1004;-71
2021/11/29 12:14:07;;;;;;;;;;;;;;;15.05;64.95;98915.53;5077236;28;1052;-62
2021/11/29 12:16:34;;;;;;;;;;;;;;;15.07;65.41;98944.69;5077024;28;1154;-62
2021/11/29 12:19:01;;;;;;;;;;;;;;;15.01;65.37;98927.50;5076892;28;1906;-63
2021/11/29 12:21:35;;;;;;;;;;;;;;;15.02;64.85;98938.97;5077322;28;1064;-63
2021/11/29 12:24:04;;;;;;;;;;;;;;;15.06;65.29;98935.88;5077248;28;959;-62
2021/11/29 12:26:49;;;;;;;;;;;;;;;15.02;64.74;98934.50;5077201;28;960;-63
2021/11/29 12:29:30;;;;;;;;;;;;;;;15.02;64.69;98939.81;5076767;28;1048;-72
2021/11/29 12:32:10;;;;;;;;;;;;;;;15.03;64.60;98957.44;5076731;28;1115;-72
2021/11/29 12:34:56;;;;;;;;;;;;;;;15.02;64.62;98961.13;5077076;28;1050;-62
2021/11/29 12:37:23;;;;;;;;;;;;;;;15.01;65.03;98962.09;5076964;28;1011;-62
2021/11/29 12:39:57;;;;;;;;;;;;;;;15.01;64.88;98959.44;5076852;28;1971;-62
2021/11/29 12:42:45;;;;;;;;;;;;;;;15.02;64.55;98953.13;5076852;28;995;-62
2021/11/29 12:45:13;;;;;;;;;;;;;;;15.06;65.53;98969.59;5076879;28;1017;-63
2021/11/29 12:47:42;;;;;;;;;;;;;;;15.04;65.03;98975.09;5076542;28;1016;-72
2021/11/29 12:50:27;;;;;;;;;;;;;;;15.01;65.30;98964.75;5076763;28;1064;-62
2021/11/29 12:53:06;;;;;;;;;;;;;;;15.00;64.18;98968.41;5076352;28;1024;-62
2021/11/29 12:55:33;;;;;;;;;;;;;;;15.02;65.98;98977.09;5076636;28;1049;-63
2021/11/29 12:58:16;;;;;;;;;;;;;;;15.02;64.14;98977.09;5076581;28;982;-66
2021/11/29 13:00:43;;;;;;;;;;;;;;;15.02;64.93;98982.41;5075727;28;1993;-71
2021/11/29 13:03:12;;;;;;;;;;;;;;;15.01;64.25;98991.38;5075662;28;1451;-72
2021/11/29 13:05:40;;;;;;;;;;;;;;;15.03;64.16;98988.56;5076955;28;1492;-62